Time;durP1;ratioP1;P1;durP2;ratioP2;P2;SDS_P1;SDS_P2;PMS_P1;PMS_P2;Temp;Humidity;BMP_temperature;BMP_pressure;BME280_temperature;BME280_humidity;BME280_pressure;Samples;Min_cycle;Max_cycle;Signal;HPM_P1;HPM_P2
2022/09/24 00:00:54;0.00;0.00;0.62;0.00;0.00;0.62;1.63;1.00;;;28.30;26.60;;;;;;2234462;62;20781;-64
2022/09/24 00:03:40;0.00;0.00;0.62;0.00;0.00;0.62;1.57;1.10;;;28.30;26.60;;;;;;2233766;62;20425;-64
2022/09/24 00:06:30;0.00;0.00;0.62;0.00;0.00;0.62;1.80;1.40;;;28.30;26.60;;;;;;2233972;62;20368;-64
2022/09/24 00:09:20;0.00;0.00;0.62;0.00;0.00;0.62;2.63;1.90;;;28.30;26.60;;;;;;2234073;62;20608;-64
2022/09/24 00:12:05;0.00;0.00;0.62;0.00;0.00;0.62;1.93;1.30;;;28.30;27.10;;;;;;2234178;62;20408;-64
2022/09/24 00:14:49;0.00;0.00;0.62;0.00;0.00;0.62;3.63;1.93;;;28.30;26.50;;;;;;2234031;62;20667;-63
2022/09/24 00:17:34;0.00;0.00;0.62;0.00;0.00;0.62;4.10;2.00;;;28.30;26.50;;;;;;2233680;62;20368;-64
2022/09/24 00:20:21;0.00;0.00;0.62;0.00;0.00;0.62;2.27;1.70;;;28.20;26.40;;;;;;2234026;62;20758;-62
2022/09/24 00:23:10;0.00;0.00;0.62;0.00;0.00;0.62;2.10;1.63;;;28.20;26.40;;;;;;2234093;62;20470;-64
2022/09/24 00:28:58;0.00;0.00;0.62;0.00;0.00;0.62;2.40;1.77;;;28.20;26.30;;;;;;2233823;62;20765;-64
2022/09/24 00:31:44;0.00;0.00;0.62;0.00;0.00;0.62;2.30;1.90;;;28.20;26.30;;;;;;2234113;62;20368;-63
2022/09/24 00:34:29;0.00;0.00;0.62;0.00;0.00;0.62;2.90;2.00;;;28.20;26.30;;;;;;2231002;62;20360;-64
2022/09/24 00:37:13;0.00;0.00;0.62;0.00;0.00;0.62;2.73;2.43;;;28.20;26.30;;;;;;2229833;62;20365;-64
2022/09/24 00:39:59;0.00;0.00;0.62;0.00;0.00;0.62;2.40;2.10;;;28.20;26.30;;;;;;2229831;62;20366;-64
2022/09/24 00:42:44;0.00;0.00;0.62;0.00;0.00;0.62;2.40;1.90;;;28.20;26.30;;;;;;2257626;62;20528;-63
2022/09/24 00:45:30;0.00;0.00;0.62;0.00;0.00;0.62;2.80;2.60;;;28.20;26.30;;;;;;2238343;62;20363;-64
2022/09/24 00:48:15;0.00;0.00;0.62;0.00;0.00;0.62;2.70;2.03;;;28.20;26.30;;;;;;2237406;62;20379;-64
2022/09/24 00:51:01;0.00;0.00;0.62;0.00;0.00;0.62;2.37;2.10;;;28.10;26.20;;;;;;2237835;62;20388;-64
2022/09/24 00:53:51;0.00;0.00;0.62;0.00;0.00;0.62;2.40;2.20;;;28.10;26.30;;;;;;2238108;62;20626;-63
2022/09/24 00:56:41;0.00;0.00;0.62;0.00;0.00;0.62;2.50;2.13;;;28.10;26.30;;;;;;2237776;62;20356;-63
2022/09/24 00:59:27;0.00;0.00;0.62;0.00;0.00;0.62;3.03;2.57;;;28.10;26.30;;;;;;2237982;62;20395;-63
2022/09/24 01:02:13;0.00;0.00;0.62;0.00;0.00;0.62;2.33;2.13;;;28.10;26.30;;;;;;2237580;62;20423;-63
2022/09/24 01:04:58;0.00;0.00;0.62;0.00;0.00;0.62;2.63;2.23;;;28.10;26.30;;;;;;2237547;62;20656;-63
2022/09/24 01:07:46;0.00;0.00;0.62;0.00;0.00;0.62;2.57;1.93;;;28.10;26.90;;;;;;2237989;62;20611;-63
2022/09/24 01:10:49;0.00;0.00;0.62;0.00;0.00;0.62;3.30;2.80;;;28.10;26.30;;;;;;2237382;62;20813;-64
2022/09/24 01:13:58;0.00;0.00;0.62;0.00;0.00;0.62;3.00;2.80;;;28.00;26.30;;;;;;2237730;62;20437;-63
2022/09/24 01:16:51;0.00;0.00;0.62;0.00;0.00;0.62;2.90;2.47;;;28.00;26.30;;;;;;2237604;62;20415;-63
2022/09/24 01:20:39;0.00;0.00;0.62;0.00;0.00;0.62;2.47;2.27;;;28.00;26.30;;;;;;2237238;62;20433;-63
2022/09/24 01:23:55;0.00;0.00;0.62;0.00;0.00;0.62;2.87;2.23;;;28.00;26.30;;;;;;2225320;62;20397;-63
2022/09/24 01:26:55;0.00;0.00;0.62;0.00;0.00;0.62;3.37;2.77;;;28.00;26.30;;;;;;2237544;62;20408;-62
2022/09/24 01:29:52;0.00;0.00;0.62;0.00;0.00;0.62;4.00;2.10;;;28.00;26.30;;;;;;2237943;62;20387;-63
2022/09/24 01:32:42;0.00;0.00;0.62;0.00;0.00;0.62;4.20;2.90;;;27.90;26.20;;;;;;2237353;62;20492;-64
2022/09/24 01:35:34;0.00;0.00;0.62;0.00;0.00;0.62;4.30;3.03;;;27.90;26.20;;;;;;2237619;62;20747;-62
2022/09/24 01:38:24;0.00;0.00;0.62;0.00;0.00;0.62;3.07;2.77;;;27.90;26.80;;;;;;2237591;62;20786;-63
2022/09/24 01:41:12;0.00;0.00;0.62;0.00;0.00;0.62;3.13;2.67;;;27.90;26.30;;;;;;2237924;62;20451;-63
2022/09/24 01:43:59;0.00;0.00;0.62;0.00;0.00;0.62;2.50;2.27;;;27.90;26.80;;;;;;2238021;62;20411;-62
2022/09/24 01:46:45;0.00;0.00;0.62;0.00;0.00;0.62;2.37;2.13;;;27.90;26.30;;;;;;2237320;62;20403;-64
2022/09/24 01:49:30;0.00;0.00;0.62;0.00;0.00;0.62;3.00;2.70;;;27.90;26.30;;;;;;2237561;62;20386;-63
2022/09/24 01:52:23;0.00;0.00;0.62;0.00;0.00;0.62;2.20;2.00;;;27.80;26.20;;;;;;2238072;62;20366;-63
2022/09/24 01:55:12;0.00;0.00;0.62;0.00;0.00;0.62;4.70;3.00;;;27.80;26.30;;;;;;2237436;62;20741;-64
2022/09/24 01:58:03;0.00;0.00;0.62;0.00;0.00;0.62;3.07;2.40;;;27.80;26.30;;;;;;2237387;62;20399;-64
2022/09/24 02:00:55;0.00;0.00;0.62;0.00;0.00;0.62;3.70;3.07;;;27.80;26.30;;;;;;2237674;62;20367;-63
2022/09/24 02:03:50;0.00;0.00;0.62;0.00;0.00;0.62;2.53;2.33;;;27.80;26.40;;;;;;2237537;62;20400;-63
2022/09/24 02:06:41;0.00;0.00;0.62;0.00;0.00;0.62;3.20;2.53;;;27.80;26.40;;;;;;2237707;62;20655;-64
2022/09/24 02:09:36;0.00;0.00;0.62;0.00;0.00;0.62;3.00;2.70;;;27.80;26.40;;;;;;2591634;46;20393;-63
2022/09/24 02:12:28;0.00;0.00;0.62;0.00;0.00;0.62;2.53;2.27;;;27.80;26.40;;;;;;2229764;62;20361;-61
2022/09/24 02:15:19;0.00;0.00;0.62;0.00;0.00;0.62;3.33;2.10;;;27.80;26.40;;;;;;2229448;62;20361;-62
2022/09/24 02:18:10;0.00;0.00;0.62;0.00;0.00;0.62;2.43;2.23;;;27.70;26.40;;;;;;2229789;62;20393;-64
2022/09/24 02:20:59;0.00;0.00;0.62;0.00;0.00;0.62;2.90;2.60;;;27.70;26.40;;;;;;2229973;62;20365;-63
2022/09/24 02:23:50;0.00;0.00;0.62;0.00;0.00;0.62;3.20;2.67;;;27.70;26.40;;;;;;2229510;62;20461;-63
2022/09/24 02:26:35;0.00;0.00;0.62;0.00;0.00;0.62;3.27;2.97;;;27.70;26.40;;;;;;2229552;62;20413;-63
2022/09/24 02:29:20;0.00;0.00;0.62;0.00;0.00;0.62;3.10;2.40;;;27.70;26.40;;;;;;2229882;62;20393;-63
2022/09/24 02:32:09;0.00;0.00;0.62;0.00;0.00;0.62;3.10;2.80;;;27.70;26.50;;;;;;2229581;62;20377;-63
2022/09/24 02:35:00;0.00;0.00;0.62;0.00;0.00;0.62;3.33;2.97;;;27.70;26.50;;;;;;2229490;62;20377;-63
2022/09/24 02:37:46;0.00;0.00;0.62;0.00;0.00;0.62;3.00;2.70;;;27.60;26.50;;;;;;2229626;62;20625;-63
2022/09/24 02:40:32;0.00;0.00;0.62;0.00;0.00;0.62;3.20;2.90;;;27.70;26.50;;;;;;2229627;62;20443;-63
2022/09/24 02:43:17;0.00;0.00;0.62;0.00;0.00;0.62;3.20;2.70;;;27.60;26.50;;;;;;2230149;62;20393;-63
2022/09/24 02:46:01;0.00;0.00;0.62;0.00;0.00;0.62;3.10;2.80;;;27.60;26.50;;;;;;2229359;62;20373;-63
2022/09/24 02:48:46;0.00;0.00;0.62;0.00;0.00;0.62;3.33;3.00;;;27.60;26.50;;;;;;2229632;62;20385;-63
2022/09/24 02:51:31;0.00;0.00;0.62;0.00;0.00;0.62;3.60;2.53;;;27.60;26.50;;;;;;2230188;62;20362;-63
2022/09/24 02:54:17;0.00;0.00;0.62;0.00;0.00;0.62;3.00;2.70;;;27.60;26.50;;;;;;2229521;62;20594;-63
2022/09/24 02:57:02;0.00;0.00;0.62;0.00;0.00;0.62;2.70;2.40;;;27.60;26.60;;;;;;2229457;62;20494;-63
2022/09/24 02:59:47;0.00;0.00;0.62;0.00;0.00;0.62;4.60;3.03;;;27.60;27.10;;;;;;2229806;62;20373;-63
2022/09/24 03:02:31;0.00;0.00;0.62;0.00;0.00;0.62;2.70;2.50;;;27.60;26.60;;;;;;2230467;62;20373;-63
2022/09/24 03:05:17;0.00;0.00;0.62;0.00;0.00;0.62;2.57;2.37;;;27.50;26.50;;;;;;2230890;62;20593;-63
2022/09/24 03:08:02;0.00;0.00;0.62;0.00;0.00;0.62;3.07;2.83;;;27.50;26.50;;;;;;2234638;62;20399;-63
2022/09/24 03:10:50;0.00;0.00;0.62;0.00;0.00;0.62;3.73;3.00;;;27.50;26.60;;;;;;2238261;62;20371;-62
2022/09/24 03:13:34;0.00;0.00;0.62;0.00;0.00;0.62;3.73;3.30;;;27.50;26.60;;;;;;2238742;62;20431;-63
2022/09/24 03:16:20;0.00;0.00;0.62;0.00;0.00;0.62;3.30;2.90;;;27.50;26.60;;;;;;2237714;62;20404;-62
2022/09/24 03:19:06;0.00;0.00;0.62;0.00;0.00;0.62;2.90;2.60;;;27.50;26.60;;;;;;2238048;62;20439;-63
2022/09/24 03:21:51;0.00;0.00;0.62;0.00;0.00;0.62;3.53;2.90;;;27.50;26.60;;;;;;2238261;62;20371;-64
2022/09/24 03:24:36;0.00;0.00;0.62;0.00;0.00;0.62;2.93;2.63;;;27.50;26.60;;;;;;2238154;62;20394;-63
2022/09/24 03:27:22;0.00;0.00;0.62;0.00;0.00;0.62;3.33;2.90;;;27.50;26.70;;;;;;2238201;62;20590;-63
2022/09/24 03:33:12;0.00;0.00;0.62;0.00;0.00;0.62;2.90;2.60;;;27.40;26.60;;;;;;2237129;62;20736;-64
2022/09/24 03:35:59;0.00;0.00;0.62;0.00;0.00;0.62;3.23;2.93;;;27.40;26.60;;;;;;2234399;62;20644;-64
2022/09/24 03:38:45;0.00;0.00;0.62;0.00;0.00;0.62;3.20;2.73;;;27.40;26.70;;;;;;2233868;62;20384;-63
2022/09/24 03:41:30;0.00;0.00;0.62;0.00;0.00;0.62;3.00;2.70;;;27.40;27.30;;;;;;2234075;62;20376;-63
2022/09/24 03:44:16;0.00;0.00;0.62;0.00;0.00;0.62;3.40;3.10;;;27.40;26.70;;;;;;2234116;62;20391;-62
2022/09/24 03:47:00;0.00;0.00;0.62;0.00;0.00;0.62;3.10;2.80;;;27.40;26.70;;;;;;2234087;62;20749;-62
2022/09/24 03:49:45;0.00;0.00;0.62;0.00;0.00;0.62;2.97;2.47;;;27.40;26.70;;;;;;2234571;62;20449;-63
2022/09/24 03:52:30;0.00;0.00;0.62;0.00;0.00;0.62;3.50;2.83;;;27.40;26.70;;;;;;2233707;62;20579;-63
2022/09/24 03:55:15;0.00;0.00;0.62;0.00;0.00;0.62;3.50;2.80;;;27.40;26.70;;;;;;2234051;62;20360;-63
2022/09/24 03:58:00;0.00;0.00;0.62;0.00;0.00;0.62;3.40;2.73;;;27.40;26.70;;;;;;2234198;62;20760;-63
2022/09/24 04:00:46;0.00;0.00;0.62;0.00;0.00;0.62;3.40;2.53;;;27.30;26.70;;;;;;2233888;62;20400;-63
2022/09/24 04:03:31;0.00;0.00;0.62;0.00;0.00;0.62;3.10;2.63;;;27.40;26.70;;;;;;2234122;62;20391;-63
2022/09/24 04:06:17;0.00;0.00;0.62;0.00;0.00;0.62;3.17;2.70;;;27.30;26.70;;;;;;2234079;62;20364;-64
2022/09/24 04:09:01;0.00;0.00;0.62;0.00;0.00;0.62;3.30;3.00;;;27.30;26.70;;;;;;2234209;62;20804;-64
2022/09/24 04:11:46;0.00;0.00;0.62;0.00;0.00;0.62;3.33;3.03;;;27.30;26.70;;;;;;2234163;62;20361;-64
2022/09/24 04:14:31;0.00;0.00;0.62;0.00;0.00;0.62;2.97;2.67;;;27.30;26.80;;;;;;2233619;62;20408;-63
2022/09/24 04:17:17;0.00;0.00;0.62;0.00;0.00;0.62;3.47;3.07;;;27.30;26.80;;;;;;2233736;62;20372;-63
2022/09/24 04:20:02;0.00;0.00;0.62;0.00;0.00;0.62;3.30;3.00;;;27.30;26.80;;;;;;2234263;62;20388;-63
2022/09/24 04:22:47;0.00;0.00;0.62;0.00;0.00;0.62;3.13;2.83;;;27.30;26.80;;;;;;2233695;62;20413;-64
2022/09/24 04:25:32;0.00;0.00;0.62;0.00;0.00;0.62;2.77;2.50;;;27.30;26.80;;;;;;2234054;62;20372;-64
2022/09/24 04:28:17;0.00;0.00;0.62;0.00;0.00;0.62;3.40;2.83;;;27.20;26.80;;;;;;2234060;62;20407;-63
2022/09/24 04:31:01;0.00;0.00;0.62;0.00;0.00;0.62;3.10;2.80;;;27.30;26.80;;;;;;2234075;62;20368;-63
2022/09/24 04:33:47;0.00;0.00;0.62;0.00;0.00;0.62;4.33;2.97;;;27.20;26.80;;;;;;2232157;62;20369;-63
2022/09/24 04:36:32;0.00;0.00;0.62;0.00;0.00;0.62;3.33;2.90;;;27.20;26.80;;;;;;2229913;62;20449;-64
2022/09/24 04:39:17;0.00;0.00;0.62;0.00;0.00;0.62;3.90;3.40;;;27.20;26.80;;;;;;2229996;62;20469;-64
2022/09/24 04:42:01;0.00;0.00;0.62;0.00;0.00;0.62;3.23;2.93;;;27.20;26.80;;;;;;2230242;62;20411;-63
2022/09/24 04:44:46;0.00;0.00;0.62;0.00;0.00;0.62;3.33;3.00;;;27.20;26.80;;;;;;2229740;62;20428;-64
2022/09/24 04:47:31;0.00;0.00;0.62;0.00;0.00;0.62;4.40;2.90;;;27.20;26.80;;;;;;2229776;62;20373;-64
2022/09/24 04:50:18;0.00;0.00;0.62;0.00;0.00;0.62;4.27;2.70;;;27.20;26.80;;;;;;2230299;62;20369;-63
2022/09/24 04:53:03;0.00;0.00;0.62;0.00;0.00;0.62;3.40;2.93;;;27.20;26.80;;;;;;2229889;62;20604;-63
2022/09/24 04:55:48;0.00;0.00;0.62;0.00;0.00;0.62;3.60;2.73;;;27.20;26.80;;;;;;2229946;62;20370;-63
2022/09/24 04:58:32;0.00;0.00;0.62;0.00;0.00;0.62;4.07;3.13;;;27.20;26.90;;;;;;2229850;62;20442;-63
2022/09/24 05:01:18;0.00;0.00;0.62;0.00;0.00;0.62;2.83;2.53;;;27.10;26.80;;;;;;2229935;62;20381;-63
2022/09/24 05:04:02;0.00;0.00;0.62;0.00;0.00;0.62;3.00;2.70;;;27.20;26.90;;;;;;2230330;62;20620;-63
2022/09/24 05:06:48;0.00;0.00;0.62;0.00;0.00;0.62;2.87;2.37;;;27.10;26.80;;;;;;2229700;62;20410;-63
2022/09/24 05:09:33;0.00;0.00;0.62;0.00;0.00;0.62;3.40;3.03;;;27.10;26.90;;;;;;2229880;62;20757;-62
2022/09/24 05:12:19;0.00;0.00;0.62;0.00;0.00;0.62;3.43;2.63;;;27.10;26.90;;;;;;2230286;62;20699;-63
2022/09/24 05:15:05;0.00;0.00;0.62;0.00;0.00;0.62;3.40;3.10;;;27.10;26.90;;;;;;2229795;62;20443;-65
2022/09/24 05:17:51;0.00;0.00;0.62;0.00;0.00;0.62;4.70;3.30;;;27.10;26.90;;;;;;2229548;62;20425;-62
2022/09/24 05:20:36;0.00;0.00;0.62;0.00;0.00;0.62;3.00;2.43;;;27.10;27.00;;;;;;2230065;62;20418;-63
2022/09/24 05:23:23;0.00;0.00;0.62;0.00;0.00;0.62;4.10;3.20;;;27.10;27.00;;;;;;2229728;62;20668;-64
2022/09/24 05:29:10;0.00;0.00;0.62;0.00;0.00;0.62;3.47;3.17;;;27.10;27.20;;;;;;2229665;62;20384;-61
2022/09/24 05:31:55;0.00;0.00;0.62;0.00;0.00;0.62;4.53;2.87;;;27.00;27.10;;;;;;2229760;62;20757;-62
2022/09/24 05:34:41;0.00;0.00;0.62;0.00;0.00;0.62;2.93;2.43;;;27.00;27.10;;;;;;2233474;62;20423;-61
2022/09/24 05:37:26;0.00;0.00;0.62;0.00;0.00;0.62;2.70;2.50;;;27.00;27.00;;;;;;2233359;62;20748;-64
2022/09/24 05:43:20;0.00;0.00;0.62;0.00;0.00;0.62;3.50;3.20;;;27.00;27.10;;;;;;2230933;62;20416;-64
2022/09/24 05:46:06;0.00;0.00;0.62;0.00;0.00;0.62;3.80;3.40;;;27.00;27.10;;;;;;2233749;62;20736;-64
2022/09/24 05:48:50;0.00;0.00;0.62;0.00;0.00;0.62;3.10;2.80;;;27.00;27.10;;;;;;2234081;62;20424;-65
2022/09/24 05:51:35;0.00;0.00;0.62;0.00;0.00;0.62;3.13;2.80;;;27.00;27.20;;;;;;2233538;62;20754;-65
2022/09/24 05:54:20;0.00;0.00;0.62;0.00;0.00;0.62;3.60;2.87;;;27.00;27.10;;;;;;2233585;62;20636;-64
2022/09/24 05:57:06;0.00;0.00;0.62;0.00;0.00;0.62;4.10;3.33;;;27.00;27.20;;;;;;2236220;62;20371;-64
2022/09/24 05:59:52;0.00;0.00;0.62;0.00;0.00;0.62;4.10;3.27;;;27.00;27.20;;;;;;2233730;62;20600;-62
2022/09/24 06:02:38;0.00;0.00;0.62;0.00;0.00;0.62;3.27;2.97;;;26.90;27.20;;;;;;2233762;62;20444;-62
2022/09/24 06:05:22;0.00;0.00;0.62;0.00;0.00;0.62;3.13;2.83;;;26.90;27.20;;;;;;2233499;62;20384;-63
2022/09/24 06:08:07;0.00;0.00;0.62;0.00;0.00;0.62;4.13;2.60;;;26.90;27.20;;;;;;2235773;62;20758;-62
2022/09/24 06:10:53;0.00;0.00;0.62;0.00;0.00;0.62;3.23;2.83;;;26.90;27.20;;;;;;2234173;62;20636;-65
2022/09/24 06:13:39;0.00;0.00;0.62;0.00;0.00;0.62;3.70;3.13;;;26.90;27.20;;;;;;2233233;62;20441;-64
2022/09/24 06:16:24;0.00;0.00;0.62;0.00;0.00;0.62;3.30;3.00;;;26.90;27.20;;;;;;2233400;62;20380;-63
2022/09/24 06:19:09;0.00;0.00;0.62;0.00;0.00;0.62;3.27;2.90;;;26.90;27.30;;;;;;2233918;62;20432;-62
2022/09/24 06:21:54;0.00;0.00;0.62;0.00;0.00;0.62;3.07;2.60;;;26.90;27.20;;;;;;2233699;62;20740;-63
2022/09/24 06:24:40;0.00;0.00;0.62;0.00;0.00;0.62;3.17;2.70;;;26.90;27.20;;;;;;2233582;62;20431;-63
2022/09/24 06:27:24;0.00;0.00;0.62;0.00;0.00;0.62;5.10;2.60;;;26.90;27.20;;;;;;2233486;62;20364;-63
2022/09/24 06:30:11;0.00;0.00;0.62;0.00;0.00;0.62;3.63;3.30;;;26.90;27.20;;;;;;2233639;62;20404;-63
2022/09/24 06:33:04;0.00;0.00;0.62;0.00;0.00;0.62;3.20;2.90;;;26.90;27.20;;;;;;2233586;62;20365;-64
2022/09/24 06:35:48;0.00;0.00;0.62;0.00;0.00;0.62;3.30;2.20;;;26.90;27.20;;;;;;2229197;62;20691;-63
2022/09/24 06:38:34;0.00;0.00;0.62;0.00;0.00;0.62;3.57;2.90;;;26.80;27.70;;;;;;2229433;62;20652;-62
2022/09/24 06:41:18;0.00;0.00;0.62;0.00;0.00;0.62;2.90;2.43;;;26.80;27.10;;;;;;2229905;62;20369;-63
2022/09/24 06:44:03;0.00;0.00;0.62;0.00;0.00;0.62;2.60;2.40;;;26.80;27.10;;;;;;2229485;62;20434;-62
2022/09/24 06:46:50;0.00;0.00;0.62;0.00;0.00;0.62;3.70;2.63;;;26.80;27.10;;;;;;2229279;62;20369;-63
2022/09/24 06:49:35;0.00;0.00;0.62;0.00;0.00;0.62;2.57;2.33;;;26.80;27.20;;;;;;2229521;62;20420;-63
2022/09/24 06:52:19;0.00;0.00;0.62;0.00;0.00;0.62;3.13;2.63;;;26.80;27.10;;;;;;2229628;62;20369;-64
2022/09/24 06:55:05;0.00;0.00;0.62;0.00;0.00;0.62;2.60;2.40;;;26.80;27.10;;;;;;2229982;62;20392;-63
2022/09/24 06:58:00;0.00;0.00;0.62;0.00;0.00;0.62;3.07;2.77;;;26.80;27.10;;;;;;2229082;62;20509;-62
2022/09/24 07:00:52;0.00;0.00;0.62;0.00;0.00;0.62;3.53;2.70;;;26.80;27.20;;;;;;2229605;62;20369;-61
2022/09/24 07:03:38;0.00;0.00;0.62;0.00;0.00;0.62;3.60;2.53;;;26.80;27.10;;;;;;2229824;62;20409;-62
2022/09/24 07:06:23;0.00;0.00;0.62;0.00;0.00;0.62;2.90;2.07;;;26.80;27.10;;;;;;2229479;62;20370;-63
2022/09/24 07:09:07;0.00;0.00;0.62;0.00;0.00;0.62;3.03;2.57;;;26.90;27.20;;;;;;2229493;62;20416;-63
2022/09/24 07:11:52;0.00;0.00;0.62;0.00;0.00;0.62;2.70;2.50;;;26.90;27.20;;;;;;2229638;62;20605;-63
2022/09/24 07:14:36;0.00;0.00;0.62;0.00;0.00;0.62;2.77;2.47;;;26.90;27.20;;;;;;2229410;62;20364;-64
2022/09/24 07:17:21;0.00;0.00;0.62;0.00;0.00;0.62;2.50;2.30;;;26.90;27.20;;;;;;2231958;62;20369;-64
2022/09/24 07:20:09;0.00;0.00;0.62;0.00;0.00;0.62;1.90;1.70;;;26.90;27.20;;;;;;2229283;62;20389;-63
2022/09/24 07:22:54;0.00;0.00;0.62;0.00;0.00;0.62;2.33;2.07;;;26.80;27.10;;;;;;2229495;62;20418;-64
2022/09/24 07:25:39;0.00;0.00;0.62;0.00;0.00;0.62;2.67;2.10;;;26.90;27.20;;;;;;2229966;62;20410;-63
2022/09/24 07:28:24;0.00;0.00;0.62;0.00;0.00;0.62;2.90;2.27;;;26.90;27.20;;;;;;2229358;62;20483;-63
2022/09/24 07:31:09;0.00;0.00;0.62;0.00;0.00;0.62;2.70;2.20;;;26.90;27.20;;;;;;2229577;62;20384;-63
2022/09/24 07:33:54;0.00;0.00;0.62;0.00;0.00;0.62;2.47;2.03;;;26.90;27.20;;;;;;2231442;62;20644;-63
2022/09/24 07:36:40;0.00;0.00;0.62;0.00;0.00;0.62;2.00;1.63;;;26.90;27.20;;;;;;2233247;62;20737;-63
2022/09/24 07:39:25;0.00;0.00;0.62;0.00;0.00;0.62;2.30;1.90;;;26.90;27.20;;;;;;2233679;62;20604;-64
2022/09/24 07:42:10;0.00;0.00;0.62;0.00;0.00;0.62;2.10;1.80;;;26.90;27.20;;;;;;2233275;62;20578;-63
2022/09/24 07:44:59;0.00;0.00;0.62;0.00;0.00;0.62;2.80;2.20;;;26.90;27.20;;;;;;2233268;62;20392;-63
2022/09/24 07:47:44;0.00;0.00;0.62;0.00;0.00;0.62;3.10;2.40;;;26.90;27.20;;;;;;2234075;62;20387;-63
2022/09/24 07:50:33;0.00;0.00;0.62;0.00;0.00;0.62;2.23;1.77;;;26.90;27.20;;;;;;2233817;62;20372;-64
2022/09/24 07:53:20;0.00;0.00;0.62;0.00;0.00;0.62;2.10;1.73;;;26.90;27.20;;;;;;2233862;62;20584;-61
2022/09/24 07:56:05;0.00;0.00;0.62;0.00;0.00;0.62;2.30;1.90;;;26.90;27.20;;;;;;2234228;62;20391;-61
2022/09/24 07:58:51;0.00;0.00;0.62;0.00;0.00;0.62;2.40;1.97;;;26.90;27.20;;;;;;2234039;62;20435;-64
2022/09/24 08:01:37;0.00;0.00;0.62;0.00;0.00;0.62;2.47;1.70;;;26.90;27.20;;;;;;2234456;62;20369;-63
2022/09/24 08:04:21;0.00;0.00;0.62;0.00;0.00;0.62;2.23;2.03;;;26.90;27.20;;;;;;2236186;62;20403;-63
2022/09/24 08:07:07;0.00;0.00;0.62;0.00;0.00;0.62;3.10;2.40;;;26.90;27.70;;;;;;2233762;62;20413;-62
2022/09/24 08:09:53;0.00;0.00;0.62;0.00;0.00;0.62;2.37;1.70;;;26.90;27.20;;;;;;2234015;62;20610;-64
2022/09/24 08:12:37;0.00;0.00;0.62;0.00;0.00;0.62;2.50;2.10;;;26.90;27.20;;;;;;2233896;62;20781;-63
2022/09/24 08:15:22;0.00;0.00;0.62;0.00;0.00;0.62;2.27;2.00;;;27.00;27.20;;;;;;2233744;62;20349;-62
2022/09/24 08:18:06;0.00;0.00;0.62;0.00;0.00;0.62;2.30;2.07;;;26.90;27.70;;;;;;2233945;62;20413;-62
2022/09/24 08:20:51;0.00;0.00;0.62;0.00;0.00;0.62;2.00;1.70;;;27.00;27.20;;;;;;2234201;62;20384;-62
2022/09/24 08:23:38;0.00;0.00;0.62;0.00;0.00;0.62;2.10;1.90;;;27.00;27.20;;;;;;2234507;62;20388;-63
2022/09/24 08:26:25;0.00;0.00;0.62;0.00;0.00;0.62;2.20;2.00;;;27.00;27.20;;;;;;2233663;62;20825;-62
2022/09/24 08:29:09;0.00;0.00;0.62;0.00;0.00;0.62;2.37;1.70;;;26.90;27.10;;;;;;2233407;62;20696;-64
2022/09/24 08:31:54;0.00;0.00;0.62;0.00;0.00;0.62;2.20;1.57;;;27.00;27.10;;;;;;2234371;62;20746;-63
2022/09/24 08:34:39;0.00;0.00;0.62;0.00;0.00;0.62;2.00;1.70;;;27.00;27.10;;;;;;2235920;62;20368;-62
2022/09/24 08:37:26;0.00;0.00;0.62;0.00;0.00;0.62;2.33;1.83;;;27.00;27.10;;;;;;2233805;62;20708;-64
2022/09/24 08:40:18;0.00;0.00;0.62;0.00;0.00;0.62;2.20;1.80;;;27.00;27.10;;;;;;2233929;62;20742;-64
2022/09/24 08:43:18;0.00;0.00;0.62;0.00;0.00;0.62;2.50;1.53;;;27.00;27.10;;;;;;2234017;62;20367;-63
2022/09/24 08:49:24;0.00;0.00;0.62;0.00;0.00;0.62;2.50;2.10;;;27.00;27.10;;;;;;2233443;62;20441;-62
2022/09/24 08:52:28;0.00;0.00;0.62;0.00;0.00;0.62;2.03;1.70;;;27.00;27.10;;;;;;2233887;62;20392;-63
2022/09/24 08:55:21;0.00;0.00;0.62;0.00;0.00;0.62;2.23;1.90;;;27.00;27.10;;;;;;2233845;62;20724;-63
2022/09/24 08:58:40;0.00;0.00;0.62;0.00;0.00;0.62;1.87;1.53;;;27.00;27.10;;;;;;2235827;62;20391;-63
2022/09/24 09:01:36;0.00;0.00;0.62;0.00;0.00;0.62;1.80;1.30;;;27.00;27.10;;;;;;2234283;62;20372;-62
2022/09/24 09:04:30;0.00;0.00;0.62;0.00;0.00;0.62;2.00;1.60;;;27.00;27.10;;;;;;2233628;62;20465;-63
2022/09/24 09:07:22;0.00;0.00;0.62;0.00;0.00;0.62;2.73;1.90;;;27.00;27.10;;;;;;2233637;62;20368;-62
2022/09/24 09:10:12;0.00;0.00;0.62;0.00;0.00;0.62;2.00;1.80;;;27.00;27.10;;;;;;2233870;62;20371;-63
2022/09/24 09:13:04;0.00;0.00;0.62;0.00;0.00;0.62;1.70;1.40;;;27.00;27.10;;;;;;2236157;62;20396;-63
2022/09/24 09:16:02;0.00;0.00;0.62;0.00;0.00;0.62;2.00;1.60;;;27.00;27.10;;;;;;2234153;62;20661;-63
2022/09/24 09:18:51;0.00;0.00;0.62;0.00;0.00;0.62;1.93;1.40;;;27.00;27.10;;;;;;2233442;62;20792;-63
2022/09/24 09:21:43;0.00;0.00;0.62;0.00;0.00;0.62;2.10;1.40;;;27.00;27.10;;;;;;2233765;62;20441;-62
2022/09/24 09:24:40;0.00;0.00;0.62;0.00;0.00;0.62;2.23;1.70;;;27.00;27.00;;;;;;2233847;62;20411;-63
2022/09/24 09:27:28;0.00;0.00;0.62;0.00;0.00;0.62;1.90;1.30;;;27.00;27.10;;;;;;2233725;62;20381;-63
2022/09/24 09:30:18;0.00;0.00;0.62;0.00;0.00;0.62;2.00;1.57;;;27.10;27.10;;;;;;2234113;62;20435;-62
2022/09/24 09:33:26;0.00;0.00;0.62;0.00;0.00;0.62;2.47;1.87;;;27.00;27.00;;;;;;2232931;62;20365;-63
2022/09/24 09:36:39;0.00;0.00;0.62;0.00;0.00;0.62;1.70;1.23;;;27.10;27.10;;;;;;2229780;62;20369;-64
2022/09/24 09:39:37;0.00;0.00;0.62;0.00;0.00;0.62;1.80;1.47;;;27.10;27.10;;;;;;2229776;62;20624;-60
2022/09/24 09:42:30;0.00;0.00;0.62;0.00;0.00;0.62;2.50;1.77;;;27.10;27.00;;;;;;2229965;62;20512;-63
2022/09/24 09:45:29;0.00;0.00;0.62;0.00;0.00;0.62;2.10;1.57;;;27.10;27.00;;;;;;2230154;62;20663;-61
2022/09/24 09:48:16;0.00;0.00;0.62;0.00;0.00;0.62;2.13;1.53;;;27.10;27.00;;;;;;2229652;62;20389;-61
2022/09/24 09:51:05;0.00;0.00;0.62;0.00;0.00;0.62;1.90;1.40;;;27.10;27.00;;;;;;2229641;62;20369;-61
2022/09/24 09:53:55;0.00;0.00;0.62;0.00;0.00;0.62;1.93;1.63;;;27.10;27.00;;;;;;2230216;62;20417;-62
2022/09/24 09:56:44;0.00;0.00;0.62;0.00;0.00;0.62;2.00;1.57;;;27.10;27.00;;;;;;2229693;62;20368;-62
2022/09/24 09:59:32;0.00;0.00;0.62;0.00;0.00;0.62;3.27;1.60;;;27.10;27.00;;;;;;2229862;62;20389;-62
2022/09/24 10:02:26;0.00;0.00;0.62;0.00;0.00;0.62;2.20;1.73;;;27.10;27.00;;;;;;2229543;62;20367;-61
2022/09/24 10:05:20;0.00;0.00;0.62;0.00;0.00;0.62;2.30;1.93;;;27.10;27.00;;;;;;2229183;62;20507;-62
2022/09/24 10:08:19;0.00;0.00;0.62;0.00;0.00;0.62;2.27;1.70;;;27.10;27.00;;;;;;2230013;62;20384;-62
2022/09/24 10:11:12;0.00;0.00;0.62;0.00;0.00;0.62;2.87;1.80;;;27.10;27.30;;;;;;2229271;62;20406;-63
2022/09/24 10:14:04;0.00;0.00;0.62;0.00;0.00;0.62;1.93;1.60;;;27.10;27.00;;;;;;2229553;62;20368;-61
2022/09/24 10:16:53;0.00;0.00;0.62;0.00;0.00;0.62;1.90;1.43;;;27.10;27.00;;;;;;2229634;62;20486;-63
2022/09/24 10:19:42;0.00;0.00;0.62;0.00;0.00;0.62;1.93;1.43;;;27.10;27.00;;;;;;2229679;62;20432;-63
2022/09/24 10:22:29;0.00;0.00;0.62;0.00;0.00;0.62;1.70;1.30;;;27.10;27.00;;;;;;2230081;62;20712;-63
2022/09/24 10:25:23;0.00;0.00;0.62;0.00;0.00;0.62;1.70;1.10;;;27.10;27.00;;;;;;2229376;62;20832;-63
2022/09/24 10:31:23;0.00;0.00;0.62;0.00;0.00;0.62;1.90;1.50;;;27.20;27.10;;;;;;2229722;62;20442;-61
2022/09/24 10:34:23;0.00;0.00;0.62;0.00;0.00;0.62;1.80;1.40;;;27.20;27.60;;;;;;2232137;62;20376;-63
2022/09/24 10:37:17;0.00;0.00;0.62;0.00;0.00;0.62;2.13;1.60;;;27.20;27.10;;;;;;2233833;62;20372;-62
2022/09/24 10:40:14;0.00;0.00;0.62;0.00;0.00;0.62;2.03;1.50;;;27.10;27.00;;;;;;2233440;62;20416;-63
2022/09/24 10:43:03;0.00;0.00;0.62;0.00;0.00;0.62;1.90;1.40;;;27.20;27.00;;;;;;2233498;62;20462;-63
2022/09/24 10:46:12;0.00;0.00;0.62;0.00;0.00;0.62;1.80;1.37;;;27.20;27.00;;;;;;2233821;62;20854;-62
2022/09/24 10:49:06;0.00;0.00;0.62;0.00;0.00;0.62;1.60;1.20;;;27.20;27.10;;;;;;2233559;62;20419;-63
2022/09/24 10:52:02;0.00;0.00;0.62;0.00;0.00;0.62;1.53;1.10;;;27.20;27.00;;;;;;2233936;62;20594;-63
2022/09/24 10:55:01;0.00;0.00;0.62;0.00;0.00;0.62;2.90;1.50;;;27.20;27.00;;;;;;2233306;62;20769;-62
2022/09/24 10:58:01;0.00;0.00;0.62;0.00;0.00;0.62;2.03;1.47;;;27.20;27.60;;;;;;2233190;62;20615;-63
2022/09/24 11:00:59;0.00;0.00;0.62;0.00;0.00;0.62;2.00;1.37;;;27.20;27.00;;;;;;2233608;62;20367;-63
2022/09/24 11:04:09;0.00;0.00;0.62;0.00;0.00;0.62;1.77;1.13;;;27.20;27.00;;;;;;2233635;62;20443;-63
2022/09/24 11:07:43;0.00;0.00;0.62;0.00;0.00;0.62;1.90;1.43;;;27.20;27.00;;;;;;2233842;62;20724;-63
2022/09/24 11:10:55;0.00;0.00;0.62;0.00;0.00;0.62;1.80;1.30;;;27.20;27.00;;;;;;2233338;62;20793;-62
2022/09/24 11:13:54;0.00;0.00;0.62;0.00;0.00;0.62;2.03;1.80;;;27.20;27.00;;;;;;2236107;62;20405;-62
2022/09/24 11:17:10;0.00;0.00;0.62;0.00;0.00;0.62;1.70;1.20;;;27.20;27.00;;;;;;2233176;62;20372;-62
2022/09/24 11:20:33;0.00;0.00;0.62;0.00;0.00;0.62;1.80;1.30;;;27.20;27.00;;;;;;2233557;62;20391;-63
2022/09/24 11:23:43;0.00;0.00;0.62;0.00;0.00;0.62;1.93;1.30;;;27.20;27.00;;;;;;2233988;62;20722;-62
2022/09/24 11:26:42;0.00;0.00;0.62;0.00;0.00;0.62;1.83;1.33;;;27.20;26.90;;;;;;2233963;62;20397;-63